createdAt,value
2022-09-03T00:01:28.184Z,23.80
2022-09-03T00:03:54.719Z,23.80
2022-09-03T00:06:21.228Z,23.70
2022-09-03T00:08:47.722Z,23.80
2022-09-03T00:11:14.242Z,23.80
2022-09-03T00:13:40.788Z,23.80
2022-09-03T00:16:07.390Z,23.80
2022-09-03T00:18:33.939Z,23.80
2022-09-03T00:21:00.649Z,23.80
2022-09-03T00:23:27.170Z,23.80
2022-09-03T00:25:53.676Z,23.80
2022-09-03T00:28:20.181Z,23.80
2022-09-03T00:30:46.795Z,23.80
2022-09-03T00:33:13.321Z,23.80
2022-09-03T00:35:39.861Z,23.80
2022-09-03T00:38:06.388Z,23.80
2022-09-03T00:40:32.931Z,23.90
2022-09-03T00:42:59.455Z,23.80
2022-09-03T00:45:25.981Z,23.90
2022-09-03T00:47:52.492Z,23.90
2022-09-03T00:50:18.997Z,23.80
2022-09-03T00:52:45.517Z,23.80
2022-09-03T00:55:12.034Z,23.90
2022-09-03T00:57:38.557Z,23.90
2022-09-03T01:00:05.074Z,23.80
2022-09-03T01:02:31.694Z,23.80
2022-09-03T01:04:58.273Z,23.70
2022-09-03T01:07:24.792Z,23.80
2022-09-03T01:09:51.304Z,23.70
2022-09-03T01:12:17.816Z,23.70
2022-09-03T01:14:44.317Z,23.70
2022-09-03T01:17:10.840Z,23.70
2022-09-03T01:19:37.372Z,23.80
2022-09-03T01:22:03.886Z,23.70
2022-09-03T01:24:30.386Z,23.80
2022-09-03T01:26:56.887Z,23.80
2022-09-03T01:29:23.416Z,23.80
2022-09-03T01:31:49.940Z,23.80
2022-09-03T01:34:16.450Z,23.80
2022-09-03T01:36:42.971Z,23.70
2022-09-03T01:39:09.513Z,23.80
2022-09-03T01:41:36.058Z,23.70
2022-09-03T01:44:02.580Z,23.60
2022-09-03T01:46:29.133Z,23.70
2022-09-03T01:48:56.807Z,23.70
2022-09-03T01:51:23.350Z,23.70
2022-09-03T01:53:49.869Z,23.70
2022-09-03T01:56:16.370Z,23.80
2022-09-03T01:58:42.872Z,23.70
2022-09-03T02:01:09.420Z,23.70
2022-09-03T02:03:35.962Z,23.70
2022-09-03T02:06:07.531Z,23.70
2022-09-03T02:08:34.027Z,23.70
2022-09-03T02:11:00.561Z,23.70
2022-09-03T02:13:27.078Z,23.70
2022-09-03T02:15:53.643Z,23.70
2022-09-03T02:18:20.195Z,23.80
2022-09-03T02:20:46.713Z,23.70
2022-09-03T02:23:13.221Z,23.80
2022-09-03T02:25:39.747Z,23.70
2022-09-03T02:28:06.263Z,23.70
2022-09-03T02:30:43.170Z,23.70
2022-09-03T02:33:09.708Z,23.70
2022-09-03T02:35:36.243Z,23.70
2022-09-03T02:38:02.749Z,23.70
2022-09-03T02:40:29.285Z,23.60
2022-09-03T02:42:55.782Z,23.60
2022-09-03T02:45:22.300Z,23.60
2022-09-03T02:47:48.812Z,23.50
2022-09-03T02:50:15.322Z,23.60
2022-09-03T02:52:41.828Z,23.60
2022-09-03T02:55:08.770Z,23.60
2022-09-03T02:57:35.295Z,23.60
2022-09-03T03:00:01.819Z,23.60
2022-09-03T03:02:28.394Z,23.50
2022-09-03T03:04:54.952Z,23.50
2022-09-03T03:07:21.470Z,23.50
2022-09-03T03:09:47.991Z,23.50
2022-09-03T03:12:14.508Z,23.60
2022-09-03T03:14:41.039Z,23.50
2022-09-03T03:17:07.566Z,23.50
2022-09-03T03:19:34.074Z,23.60
2022-09-03T03:22:00.604Z,23.50
2022-09-03T03:24:27.133Z,23.50
2022-09-03T03:26:53.649Z,23.50
2022-09-03T03:29:20.165Z,23.50
2022-09-03T03:31:46.702Z,23.50
2022-09-03T03:34:13.237Z,23.50
2022-09-03T03:36:39.783Z,23.60
2022-09-03T03:39:06.287Z,23.50
2022-09-03T03:41:32.932Z,23.50
2022-09-03T03:43:59.441Z,23.50
2022-09-03T03:46:26.067Z,23.40
2022-09-03T03:48:52.625Z,23.50
2022-09-03T03:51:19.162Z,23.40
2022-09-03T03:53:45.676Z,23.50
2022-09-03T03:56:12.222Z,23.40
2022-09-03T03:58:38.730Z,23.40
2022-09-03T04:01:05.324Z,23.40
2022-09-03T04:03:31.876Z,23.50
2022-09-03T04:05:58.431Z,23.40
2022-09-03T04:08:25.071Z,23.40
2022-09-03T04:10:51.838Z,23.40
2022-09-03T04:13:18.354Z,23.40
2022-09-03T04:15:44.882Z,23.40
2022-09-03T04:18:11.388Z,23.40
2022-09-03T04:20:37.903Z,23.40
2022-09-03T04:23:04.398Z,23.50
2022-09-03T04:25:30.932Z,23.40
2022-09-03T04:28:02.437Z,23.50
2022-09-03T04:30:29.165Z,23.40
2022-09-03T04:32:56.560Z,23.40
2022-09-03T04:35:23.086Z,23.40
2022-09-03T04:37:49.606Z,23.40
2022-09-03T04:40:16.130Z,23.40
2022-09-03T04:42:42.641Z,23.40
2022-09-03T04:45:09.178Z,23.40
2022-09-03T04:47:35.697Z,23.40
2022-09-03T04:50:02.211Z,23.40
2022-09-03T04:52:32.249Z,23.40
2022-09-03T04:54:58.758Z,23.40
2022-09-03T04:57:25.289Z,23.40
2022-09-03T04:59:51.825Z,23.40
2022-09-03T05:02:18.411Z,23.40
2022-09-03T05:04:44.958Z,23.40
2022-09-03T05:07:11.467Z,23.30
2022-09-03T05:09:37.982Z,23.40
2022-09-03T05:12:04.501Z,23.30
2022-09-03T05:14:31.045Z,23.40
2022-09-03T05:16:57.600Z,23.40
2022-09-03T05:19:24.149Z,23.40
2022-09-03T05:21:50.675Z,23.40
2022-09-03T05:24:17.197Z,23.40
2022-09-03T05:26:43.726Z,23.40
2022-09-03T05:29:10.226Z,23.40
2022-09-03T05:31:36.751Z,23.30
2022-09-03T05:34:03.289Z,23.30
2022-09-03T05:36:29.807Z,23.30
2022-09-03T05:38:56.337Z,23.40
2022-09-03T05:41:24.943Z,23.40
2022-09-03T05:43:51.455Z,23.40
2022-09-03T05:46:17.979Z,23.40
2022-09-03T05:48:44.507Z,23.30
2022-09-03T05:51:11.039Z,23.30
2022-09-03T05:53:37.556Z,23.40
2022-09-03T05:56:04.089Z,23.30
2022-09-03T05:58:30.615Z,23.30
2022-09-03T06:00:57.171Z,23.40
2022-09-03T06:03:23.925Z,23.40
2022-09-03T06:05:50.658Z,23.40
2022-09-03T06:08:17.169Z,23.30
2022-09-03T06:10:45.043Z,23.30
2022-09-03T06:13:11.669Z,23.30
2022-09-03T06:15:38.200Z,23.40
2022-09-03T06:18:04.696Z,23.40
2022-09-03T06:20:35.127Z,23.30
2022-09-03T06:23:03.580Z,23.30
2022-09-03T06:25:30.139Z,23.40
2022-09-03T06:27:56.657Z,23.40
2022-09-03T06:30:23.181Z,23.40
2022-09-03T06:32:49.714Z,23.40
2022-09-03T06:35:16.239Z,23.40
2022-09-03T06:37:42.758Z,23.40
2022-09-03T06:40:09.269Z,23.50
2022-09-03T06:42:35.802Z,23.50
2022-09-03T06:45:02.323Z,23.50
2022-09-03T06:47:28.851Z,23.50
2022-09-03T06:49:55.378Z,23.50
2022-09-03T06:52:22.114Z,23.50
2022-09-03T06:54:48.609Z,23.50
2022-09-03T06:57:15.129Z,23.40
2022-09-03T06:59:41.656Z,23.50
2022-09-03T07:02:08.266Z,23.50
2022-09-03T07:04:34.864Z,23.40
2022-09-03T07:07:02.321Z,23.40
2022-09-03T07:09:28.850Z,23.50
2022-09-03T07:11:55.357Z,23.50
2022-09-03T07:14:21.870Z,23.50
2022-09-03T07:16:48.414Z,23.50
2022-09-03T07:19:14.937Z,23.50
2022-09-03T07:21:45.094Z,23.50
2022-09-03T07:24:14.815Z,23.50
2022-09-03T07:26:41.321Z,23.50
2022-09-03T07:29:07.851Z,23.50
2022-09-03T07:31:34.419Z,23.50
2022-09-03T07:34:00.974Z,23.50
2022-09-03T07:36:27.496Z,23.50
2022-09-03T07:38:54.234Z,23.50
2022-09-03T07:41:28.369Z,23.50
2022-09-03T07:43:55.567Z,23.50
2022-09-03T07:46:22.119Z,23.50
2022-09-03T07:48:48.674Z,23.50
2022-09-03T07:51:15.200Z,23.50
2022-09-03T07:53:41.725Z,23.50
2022-09-03T07:56:08.235Z,23.50
2022-09-03T07:58:34.762Z,23.50
2022-09-03T08:01:01.397Z,23.50
2022-09-03T08:03:28.024Z,23.50
2022-09-03T08:05:54.598Z,23.60
2022-09-03T08:08:21.110Z,23.60
2022-09-03T08:10:47.636Z,23.50
2022-09-03T08:13:14.165Z,23.50
2022-09-03T08:15:40.669Z,23.50
2022-09-03T08:18:07.192Z,23.50
2022-09-03T08:20:33.701Z,23.60
2022-09-03T08:23:00.234Z,23.60
2022-09-03T08:25:26.766Z,23.50
2022-09-03T08:27:53.314Z,23.60
2022-09-03T08:30:19.864Z,23.60
2022-09-03T08:32:46.449Z,23.60
2022-09-03T08:35:13.002Z,23.60
2022-09-03T08:37:39.541Z,23.60
2022-09-03T08:40:06.104Z,23.60
2022-09-03T08:42:32.693Z,23.60
2022-09-03T08:44:59.226Z,23.60
2022-09-03T08:47:25.757Z,23.60
2022-09-03T08:49:52.271Z,23.60
2022-09-03T08:52:18.767Z,23.60
2022-09-03T08:54:45.276Z,23.60
2022-09-03T08:57:11.788Z,23.60
2022-09-03T08:59:38.311Z,23.60
2022-09-03T09:02:08.628Z,23.70
2022-09-03T09:04:35.222Z,23.70
2022-09-03T09:07:01.747Z,23.70
2022-09-03T09:09:28.278Z,23.60
2022-09-03T09:11:54.783Z,23.70
2022-09-03T09:14:21.290Z,23.70
2022-09-03T09:16:47.813Z,23.70
2022-09-03T09:19:14.338Z,23.70
2022-09-03T09:21:40.836Z,23.70
2022-09-03T09:24:07.380Z,23.70
2022-09-03T09:26:34.319Z,23.70
2022-09-03T09:29:00.847Z,23.70
2022-09-03T09:31:27.925Z,23.70
2022-09-03T09:33:54.474Z,23.70
2022-09-03T09:36:21.014Z,23.80
2022-09-03T09:38:47.563Z,23.80
2022-09-03T09:41:14.104Z,23.80
2022-09-03T09:43:40.650Z,23.80
2022-09-03T09:46:07.186Z,23.80
2022-09-03T09:48:33.732Z,23.80
2022-09-03T09:51:00.253Z,23.80
2022-09-03T09:53:26.760Z,23.80
2022-09-03T09:55:53.283Z,23.80
2022-09-03T09:58:19.830Z,23.80
2022-09-03T10:00:46.328Z,23.90
2022-09-03T10:03:12.885Z,23.90
2022-09-03T10:05:39.463Z,23.90
2022-09-03T10:08:05.996Z,23.90
2022-09-03T10:10:32.522Z,23.90
2022-09-03T10:12:59.206Z,23.90
2022-09-03T10:15:25.730Z,23.90
2022-09-03T10:17:52.275Z,23.90
2022-09-03T10:20:18.807Z,23.90
2022-09-03T10:22:52.481Z,23.90
2022-09-03T10:25:23.933Z,23.90
2022-09-03T10:27:50.459Z,23.90
2022-09-03T10:30:18.082Z,23.90
2022-09-03T10:32:48.296Z,23.90
2022-09-03T10:35:14.980Z,23.90
2022-09-03T10:37:41.528Z,23.90
2022-09-03T10:40:08.111Z,23.90
2022-09-03T10:42:34.750Z,23.90
2022-09-03T10:45:01.262Z,23.90
2022-09-03T10:47:27.777Z,23.90
2022-09-03T10:49:54.315Z,24.00
2022-09-03T10:52:20.830Z,24.00
2022-09-03T10:54:47.348Z,24.00
2022-09-03T10:57:13.858Z,24.00
2022-09-03T10:59:40.369Z,24.00
2022-09-03T11:02:06.896Z,24.00
2022-09-03T11:04:36.297Z,24.00
2022-09-03T11:07:04.527Z,24.00
2022-09-03T11:09:31.049Z,24.10
2022-09-03T11:11:57.566Z,24.00
2022-09-03T11:14:24.095Z,24.00
2022-09-03T11:16:50.614Z,24.00
2022-09-03T11:19:17.126Z,24.10
2022-09-03T11:21:43.642Z,24.00
2022-09-03T11:24:10.164Z,24.10
2022-09-03T11:26:36.683Z,24.10
2022-09-03T11:29:03.223Z,24.10
2022-09-03T11:31:29.722Z,24.10
2022-09-03T11:33:56.258Z,24.10
2022-09-03T11:36:22.854Z,24.10
2022-09-03T11:38:49.371Z,24.10
2022-09-03T11:41:15.896Z,24.10
2022-09-03T11:43:42.410Z,24.10
2022-09-03T11:46:08.980Z,24.10
2022-09-03T11:48:38.608Z,24.10
2022-09-03T11:51:05.120Z,24.10
2022-09-03T11:53:31.637Z,24.10
2022-09-03T11:55:58.148Z,24.10
2022-09-03T11:58:24.964Z,24.10
2022-09-03T12:00:51.491Z,24.10
2022-09-03T12:03:18.101Z,24.20
2022-09-03T12:05:44.645Z,24.20
2022-09-03T12:08:11.182Z,24.20
2022-09-03T12:10:37.711Z,24.20
2022-09-03T12:13:04.233Z,24.20
2022-09-03T12:15:30.757Z,24.20
2022-09-03T12:17:57.293Z,24.20
2022-09-03T12:20:24.036Z,24.20
2022-09-03T12:22:50.600Z,24.10
2022-09-03T12:25:17.138Z,24.20
2022-09-03T12:27:43.679Z,24.20
2022-09-03T12:30:10.200Z,24.20
2022-09-03T12:32:36.733Z,24.20
2022-09-03T12:35:03.248Z,24.20
2022-09-03T12:40:16.348Z,24.20
2022-09-03T12:42:42.918Z,24.20
2022-09-03T12:45:09.440Z,24.20
2022-09-03T12:47:38.152Z,24.20
2022-09-03T12:50:04.841Z,24.20
2022-09-03T12:52:31.375Z,24.20
2022-09-03T12:54:57.895Z,24.30
2022-09-03T12:57:24.416Z,24.20
2022-09-03T12:59:50.940Z,24.30
2022-09-03T13:02:17.554Z,24.30
2022-09-03T13:04:44.172Z,24.30
2022-09-03T13:07:10.702Z,24.30
2022-09-03T13:09:37.210Z,24.30
2022-09-03T13:12:03.739Z,24.30
2022-09-03T13:14:30.273Z,24.30
2022-09-03T13:16:56.841Z,24.30
2022-09-03T13:19:23.398Z,24.30
2022-09-03T13:21:49.923Z,24.30
2022-09-03T13:24:16.454Z,24.30
2022-09-03T13:26:42.982Z,24.30
2022-09-03T13:29:09.512Z,24.30
2022-09-03T13:31:36.017Z,24.30
2022-09-03T13:34:02.543Z,24.30
2022-09-03T13:36:29.052Z,24.30
2022-09-03T13:38:55.573Z,24.30
2022-09-03T13:41:22.107Z,24.30
2022-09-03T13:43:48.635Z,24.30
2022-09-03T13:46:15.796Z,24.30
2022-09-03T13:48:43.251Z,24.30
2022-09-03T13:51:09.829Z,24.30
2022-09-03T13:53:36.349Z,24.30
2022-09-03T13:56:02.852Z,24.30
2022-09-03T13:58:29.365Z,24.30
2022-09-03T14:00:55.961Z,24.30
2022-09-03T14:03:22.554Z,24.30
2022-09-03T14:05:49.129Z,24.30
2022-09-03T14:08:15.638Z,24.30
2022-09-03T14:10:42.169Z,24.30
2022-09-03T14:13:08.699Z,24.30
2022-09-03T14:15:35.211Z,24.30
2022-09-03T14:18:01.914Z,24.30
2022-09-03T14:20:28.432Z,24.30
2022-09-03T14:22:54.960Z,24.30
2022-09-03T14:25:26.860Z,24.30
2022-09-03T14:27:53.371Z,24.30
2022-09-03T14:30:19.888Z,24.30
2022-09-03T14:32:46.410Z,24.30
2022-09-03T14:35:12.909Z,24.30
2022-09-03T14:37:39.444Z,24.30
2022-09-03T14:40:06.060Z,24.30
2022-09-03T14:42:32.682Z,24.30
2022-09-03T14:44:59.224Z,24.40
2022-09-03T14:47:25.739Z,24.30
2022-09-03T14:49:52.254Z,24.30
2022-09-03T14:52:18.768Z,24.40
2022-09-03T14:54:45.280Z,24.40
2022-09-03T14:57:13.110Z,24.40
2022-09-03T14:59:39.783Z,24.40
2022-09-03T15:02:06.301Z,24.40
2022-09-03T15:04:38.748Z,24.40
2022-09-03T15:07:05.257Z,24.40
2022-09-03T15:09:31.762Z,24.40
2022-09-03T15:11:58.287Z,24.40
2022-09-03T15:14:24.803Z,24.40
2022-09-03T15:16:51.814Z,24.40
2022-09-03T15:19:18.416Z,24.40
2022-09-03T15:21:44.928Z,24.40
2022-09-03T15:24:11.468Z,24.40
2022-09-03T15:26:37.983Z,24.40
2022-09-03T15:29:04.488Z,24.40
2022-09-03T15:31:31.056Z,24.40
2022-09-03T15:33:57.616Z,24.40
2022-09-03T15:36:24.124Z,24.40
2022-09-03T15:38:50.636Z,24.40
2022-09-03T15:41:17.145Z,24.40
2022-09-03T15:43:43.671Z,24.40
2022-09-03T15:46:10.231Z,24.40
2022-09-03T15:48:36.790Z,24.40
2022-09-03T15:51:04.406Z,24.40
2022-09-03T15:53:30.918Z,24.40
2022-09-03T15:55:57.434Z,24.40
2022-09-03T15:58:23.954Z,24.40
2022-09-03T16:00:50.743Z,24.40
2022-09-03T16:03:21.693Z,24.40
2022-09-03T16:05:49.766Z,24.40
2022-09-03T16:08:16.285Z,24.40
2022-09-03T16:10:42.807Z,24.40
2022-09-03T16:13:14.892Z,24.40
2022-09-03T16:15:41.404Z,24.40
2022-09-03T16:18:07.937Z,24.40
2022-09-03T16:20:34.458Z,24.40
2022-09-03T16:23:00.992Z,24.40
2022-09-03T16:25:27.512Z,24.40
2022-09-03T16:27:54.031Z,24.40
2022-09-03T16:30:20.542Z,24.40
2022-09-03T16:32:47.077Z,24.40
2022-09-03T16:37:57.501Z,24.40
2022-09-03T16:40:26.746Z,24.40
2022-09-03T16:42:53.438Z,24.40
2022-09-03T16:45:19.954Z,24.40
2022-09-03T16:47:46.471Z,24.40
2022-09-03T16:50:12.993Z,24.40
2022-09-03T16:52:39.563Z,24.40
2022-09-03T16:55:06.059Z,24.40
2022-09-03T16:57:32.586Z,24.40
2022-09-03T16:59:59.106Z,24.40
2022-09-03T17:02:40.411Z,24.50
2022-09-03T17:05:07.971Z,24.40
2022-09-03T17:07:38.975Z,24.40
2022-09-03T17:10:05.491Z,24.40
2022-09-03T17:12:31.998Z,24.40
2022-09-03T17:14:58.519Z,24.40
2022-09-03T17:17:25.020Z,24.40
2022-09-03T17:19:51.551Z,24.40
2022-09-03T17:22:18.311Z,24.40
2022-09-03T17:24:44.843Z,24.40
2022-09-03T17:27:11.355Z,24.40
2022-09-03T17:29:38.870Z,24.40
2022-09-03T17:32:05.391Z,24.40
2022-09-03T17:34:31.899Z,24.40
2022-09-03T17:36:58.409Z,24.40
2022-09-03T17:39:24.969Z,24.40
2022-09-03T17:41:51.507Z,24.40
2022-09-03T17:44:18.026Z,24.40
2022-09-03T17:46:44.609Z,24.40
2022-09-03T17:49:11.177Z,24.40
2022-09-03T17:51:37.709Z,24.40
2022-09-03T17:54:04.238Z,24.40
2022-09-03T17:56:30.737Z,24.40
2022-09-03T17:58:57.275Z,24.40
2022-09-03T18:01:23.869Z,24.40
2022-09-03T18:03:50.424Z,24.30
2022-09-03T18:06:16.976Z,24.30
2022-09-03T18:08:43.497Z,24.30
2022-09-03T18:11:10.021Z,24.30
2022-09-03T18:13:36.550Z,24.30
2022-09-03T18:16:03.116Z,24.30
2022-09-03T18:18:29.665Z,24.30
2022-09-03T18:21:20.770Z,24.30
2022-09-03T18:23:42.688Z,24.30
2022-09-03T18:26:09.198Z,24.30
2022-09-03T18:28:35.723Z,24.30
2022-09-03T18:31:02.304Z,24.30
2022-09-03T18:33:28.866Z,24.30
2022-09-03T18:35:55.393Z,24.30
2022-09-03T18:38:21.931Z,24.30
2022-09-03T18:40:48.501Z,24.30
2022-09-03T18:43:15.035Z,24.30
2022-09-03T18:46:22.379Z,24.30
2022-09-03T18:48:28.051Z,24.30
2022-09-03T18:50:54.622Z,24.30
2022-09-03T18:53:21.151Z,24.30
2022-09-03T18:55:47.661Z,24.30
2022-09-03T18:58:14.197Z,24.30
2022-09-03T19:00:40.713Z,24.30
2022-09-03T19:03:07.235Z,24.30
2022-09-03T19:05:33.734Z,24.30
2022-09-03T19:08:01.370Z,24.30
2022-09-03T19:10:27.902Z,24.30
2022-09-03T19:12:58.937Z,24.30
2022-09-03T19:15:26.007Z,24.30
2022-09-03T19:17:52.550Z,24.30
2022-09-03T19:20:19.079Z,24.30
2022-09-03T19:22:45.603Z,24.30
2022-09-03T19:25:12.103Z,24.30
2022-09-03T19:27:55.327Z,24.30
2022-09-03T19:30:26.923Z,24.30
2022-09-03T19:32:53.453Z,24.30
2022-09-03T19:35:23.061Z,24.30
2022-09-03T19:37:49.617Z,24.30
2022-09-03T19:40:16.122Z,24.30
2022-09-03T19:42:42.661Z,24.30
2022-09-03T19:45:09.173Z,24.30
2022-09-03T19:47:36.021Z,24.20
2022-09-03T19:50:02.549Z,24.30
2022-09-03T19:52:29.056Z,24.30
2022-09-03T19:54:55.578Z,24.20
2022-09-03T19:57:22.103Z,24.20
2022-09-03T19:59:48.645Z,24.20
2022-09-03T20:02:15.198Z,24.20
2022-09-03T20:04:41.730Z,24.20
2022-09-03T20:07:08.231Z,24.20
2022-09-03T20:09:34.760Z,24.20
2022-09-03T20:12:04.279Z,24.20
2022-09-03T20:14:33.718Z,24.20
2022-09-03T20:17:00.253Z,24.30
2022-09-03T20:19:27.016Z,24.20
2022-09-03T20:21:53.551Z,24.30
2022-09-03T20:24:20.091Z,24.30
2022-09-03T20:26:46.608Z,24.30
2022-09-03T20:29:13.139Z,24.30
2022-09-03T20:31:40.434Z,24.30
2022-09-03T20:34:07.056Z,24.30
2022-09-03T20:36:33.583Z,24.30
2022-09-03T20:39:00.097Z,24.30
2022-09-03T20:41:26.615Z,24.30
2022-09-03T20:43:53.121Z,24.30
2022-09-03T20:46:19.689Z,24.30
2022-09-03T20:48:46.244Z,24.30
2022-09-03T20:51:12.924Z,24.30
2022-09-03T20:53:39.446Z,24.30
2022-09-03T20:56:05.988Z,24.30
2022-09-03T20:58:32.526Z,24.30
2022-09-03T21:00:59.034Z,24.30
2022-09-03T21:03:25.574Z,24.30
2022-09-03T21:05:57.187Z,24.30
2022-09-03T21:08:23.777Z,24.30
2022-09-03T21:10:50.342Z,24.30
2022-09-03T21:13:16.869Z,24.30
2022-09-03T21:15:45.057Z,24.30
2022-09-03T21:18:11.624Z,24.30
2022-09-03T21:20:38.150Z,24.30
2022-09-03T21:23:04.695Z,24.20
2022-09-03T21:25:31.229Z,24.30
2022-09-03T21:27:57.774Z,24.20
2022-09-03T21:30:24.291Z,24.20
2022-09-03T21:32:50.835Z,24.20
2022-09-03T21:35:17.350Z,24.20
2022-09-03T21:37:43.899Z,24.20
2022-09-03T21:40:10.427Z,24.20
2022-09-03T21:42:37.780Z,24.20
2022-09-03T21:45:04.309Z,24.20
2022-09-03T21:47:30.869Z,24.20
2022-09-03T21:49:57.427Z,24.20
2022-09-03T21:52:24.953Z,24.20
2022-09-03T21:54:51.487Z,24.20
2022-09-03T21:57:22.245Z,24.20
2022-09-03T21:59:49.038Z,24.20
2022-09-03T22:02:15.608Z,24.20
2022-09-03T22:04:42.172Z,24.20
2022-09-03T22:07:08.676Z,24.20
2022-09-03T22:09:35.170Z,24.20
2022-09-03T22:12:01.685Z,24.20
2022-09-03T22:14:28.202Z,24.20
2022-09-03T22:16:54.764Z,24.20
2022-09-03T22:19:21.318Z,24.20
2022-09-03T22:21:47.842Z,24.10
2022-09-03T22:24:14.377Z,24.10
2022-09-03T22:26:40.897Z,24.10
2022-09-03T22:29:07.464Z,24.10
2022-09-03T22:31:33.976Z,24.10
2022-09-03T22:34:00.483Z,24.10
2022-09-03T22:36:26.996Z,24.10
2022-09-03T22:38:53.733Z,24.10
2022-09-03T22:41:20.240Z,24.10
2022-09-03T22:43:46.783Z,24.10
2022-09-03T22:46:13.370Z,24.10
2022-09-03T22:48:39.932Z,24.10
2022-09-03T22:51:06.670Z,24.10
2022-09-03T22:53:33.225Z,24.10
2022-09-03T22:55:59.736Z,24.10
2022-09-03T22:58:26.313Z,24.10
2022-09-03T23:00:55.415Z,24.10
2022-09-03T23:03:22.006Z,24.10
2022-09-03T23:05:48.557Z,24.10
2022-09-03T23:08:16.639Z,24.10
2022-09-03T23:10:43.159Z,24.10
2022-09-03T23:13:09.670Z,24.10
2022-09-03T23:15:36.203Z,24.10
2022-09-03T23:18:02.734Z,24.10
2022-09-03T23:20:29.261Z,24.10
2022-09-03T23:22:55.788Z,24.10
2022-09-03T23:25:22.307Z,24.10
2022-09-03T23:27:48.846Z,24.10
2022-09-03T23:30:15.371Z,24.10
2022-09-03T23:32:41.903Z,24.10
2022-09-03T23:35:08.426Z,24.10
2022-09-03T23:37:35.015Z,24.10
2022-09-03T23:40:01.690Z,24.10
2022-09-03T23:42:28.301Z,24.10
2022-09-03T23:44:54.865Z,24.10
2022-09-03T23:47:21.398Z,24.10
2022-09-03T23:49:47.926Z,24.10
2022-09-03T23:52:14.432Z,24.10
2022-09-03T23:54:40.946Z,24.10
2022-09-03T23:57:07.447Z,24.10
2022-09-03T23:59:33.973Z,24.10
